Time;durP1;ratioP1;P1;durP2;ratioP2;P2;SDS_P1;SDS_P2;PMS_P1;PMS_P2;Temp;Humidity;BMP_temperature;BMP_pressure;BME280_temperature;BME280_humidity;BME280_pressure;Samples;Min_cycle;Max_cycle;Signal;HPM_P1;HPM_P2
2023/05/29 00:02:01;;;;;;;;;;;11.40;99.90;;;;;;5069802;28;19923;-53
2023/05/29 00:04:27;;;;;;;;;;;11.30;99.90;;;;;;5070186;28;19917;-52
2023/05/29 00:06:52;;;;;;;;;;;11.30;99.90;;;;;;5070120;28;19951;-50
2023/05/29 00:09:18;;;;;;;;;;;11.30;99.90;;;;;;5069194;28;20007;-53
2023/05/29 00:11:44;;;;;;;;;;;11.30;99.90;;;;;;5032670;28;20061;-53
2023/05/29 00:14:13;;;;;;;;;;;11.20;99.90;;;;;;5049487;28;19923;-55
2023/05/29 00:16:39;;;;;;;;;;;11.20;99.90;;;;;;5070291;28;19950;-50
2023/05/29 00:19:05;;;;;;;;;;;11.20;99.90;;;;;;5069043;28;20405;-50
2023/05/29 00:21:30;;;;;;;;;;;11.20;99.90;;;;;;5069912;28;19928;-52
2023/05/29 00:23:56;;;;;;;;;;;11.10;99.90;;;;;;5069624;28;19916;-53
2023/05/29 00:26:21;;;;;;;;;;;11.10;99.90;;;;;;5069906;28;19917;-50
2023/05/29 00:28:47;;;;;;;;;;;11.00;99.90;;;;;;5068007;28;20245;-51
2023/05/29 00:31:12;;;;;;;;;;;11.00;99.90;;;;;;5069747;28;19916;-52
2023/05/29 00:33:38;;;;;;;;;;;11.00;99.90;;;;;;5069495;28;19995;-50
2023/05/29 00:36:05;;;;;;;;;;;11.00;99.90;;;;;;5051930;28;20278;-50
2023/05/29 00:38:30;;;;;;;;;;;11.00;99.90;;;;;;5069206;28;19925;-53
2023/05/29 00:40:56;;;;;;;;;;;10.90;99.90;;;;;;5069485;28;19923;-52
2023/05/29 00:43:21;;;;;;;;;;;10.90;99.90;;;;;;5069262;28;19920;-51
2023/05/29 00:45:47;;;;;;;;;;;10.90;99.90;;;;;;5071956;28;20362;-51
2023/05/29 00:48:13;;;;;;;;;;;10.90;99.90;;;;;;5073267;28;19946;-51
2023/05/29 00:50:38;;;;;;;;;;;10.90;99.90;;;;;;5074097;28;19916;-50
2023/05/29 00:53:04;;;;;;;;;;;10.90;99.90;;;;;;5073919;28;19923;-50
2023/05/29 00:55:30;;;;;;;;;;;10.80;99.90;;;;;;5073805;28;19993;-50
2023/05/29 00:57:56;;;;;;;;;;;10.80;99.90;;;;;;5072134;28;19971;-51
2023/05/29 01:00:21;;;;;;;;;;;10.80;99.90;;;;;;5073632;28;19925;-53
2023/05/29 01:02:48;;;;;;;;;;;10.80;99.90;;;;;;5073374;28;19916;-50
2023/05/29 01:05:14;;;;;;;;;;;10.80;99.90;;;;;;5072986;28;20381;-53
2023/05/29 01:07:43;;;;;;;;;;;10.80;99.90;;;;;;5072820;28;19920;-52
2023/05/29 01:10:09;;;;;;;;;;;10.80;99.90;;;;;;5073387;28;19942;-50
2023/05/29 01:12:43;;;;;;;;;;;10.70;99.90;;;;;;5056474;28;20278;-50
2023/05/29 01:15:27;;;;;;;;;;;10.70;99.90;;;;;;5072817;28;19923;-52
2023/05/29 01:17:55;;;;;;;;;;;10.60;99.90;;;;;;5071509;28;20050;-50
2023/05/29 01:20:43;;;;;;;;;;;10.60;99.90;;;;;;5072613;28;19970;-50
2023/05/29 01:23:28;;;;;;;;;;;10.60;99.90;;;;;;5073042;28;20010;-50
2023/05/29 01:26:12;;;;;;;;;;;10.50;99.90;;;;;;5072557;28;20408;-53
2023/05/29 01:28:43;;;;;;;;;;;10.50;99.90;;;;;;5072167;28;19916;-53
2023/05/29 01:31:09;;;;;;;;;;;10.50;99.90;;;;;;5071391;28;19923;-50
2023/05/29 01:33:38;;;;;;;;;;;10.50;99.90;;;;;;5073148;28;19920;-52
2023/05/29 01:36:04;;;;;;;;;;;10.40;99.90;;;;;;5073363;28;19920;-50
2023/05/29 01:38:29;;;;;;;;;;;10.50;99.90;;;;;;5071956;28;19927;-50
2023/05/29 01:40:55;;;;;;;;;;;10.40;99.90;;;;;;5071982;28;20372;-53
2023/05/29 01:43:21;;;;;;;;;;;10.40;99.90;;;;;;5072329;28;20061;-52
2023/05/29 01:45:46;;;;;;;;;;;10.30;99.90;;;;;;5072277;28;19923;-50
2023/05/29 01:48:12;;;;;;;;;;;10.30;99.90;;;;;;5071672;28;19916;-53
2023/05/29 01:50:37;;;;;;;;;;;10.30;99.90;;;;;;5072760;28;20006;-50
2023/05/29 01:53:03;;;;;;;;;;;10.30;99.90;;;;;;5072313;28;20369;-50
2023/05/29 01:55:28;;;;;;;;;;;10.30;99.90;;;;;;5072470;28;20009;-50
2023/05/29 01:57:55;;;;;;;;;;;10.20;99.90;;;;;;5070437;28;19916;-52
2023/05/29 02:00:20;;;;;;;;;;;10.30;99.90;;;;;;5071710;28;19917;-52
2023/05/29 02:02:46;;;;;;;;;;;10.20;99.90;;;;;;5072301;28;19940;-52
2023/05/29 02:05:11;;;;;;;;;;;10.20;99.90;;;;;;5072367;28;19917;-52
2023/05/29 02:07:37;;;;;;;;;;;10.20;99.90;;;;;;5071617;28;19916;-53
2023/05/29 02:10:03;;;;;;;;;;;10.20;99.90;;;;;;5072189;28;19916;-50
2023/05/29 02:12:29;;;;;;;;;;;10.20;99.90;;;;;;5071721;28;19969;-52
2023/05/29 02:14:55;;;;;;;;;;;10.20;99.90;;;;;;5070909;28;20367;-49
2023/05/29 02:17:20;;;;;;;;;;;10.20;99.90;;;;;;5071795;28;19927;-50
2023/05/29 02:19:46;;;;;;;;;;;10.10;99.90;;;;;;5071712;28;19920;-50
2023/05/29 02:22:12;;;;;;;;;;;10.10;99.90;;;;;;5072463;28;19920;-52
2023/05/29 02:24:37;;;;;;;;;;;10.10;99.90;;;;;;5071758;28;19962;-53
2023/05/29 02:27:03;;;;;;;;;;;10.00;99.90;;;;;;5070931;28;20003;-51
2023/05/29 02:29:28;;;;;;;;;;;10.00;99.90;;;;;;5069717;28;19969;-50
2023/05/29 02:31:54;;;;;;;;;;;10.00;99.90;;;;;;5071954;28;19920;-51
2023/05/29 02:34:22;;;;;;;;;;;10.00;99.90;;;;;;5071834;28;20289;-54
2023/05/29 02:36:48;;;;;;;;;;;10.00;99.90;;;;;;5065315;28;19916;-50
2023/05/29 02:39:14;;;;;;;;;;;10.00;99.90;;;;;;5071000;28;19947;-52
2023/05/29 02:41:39;;;;;;;;;;;9.90;99.90;;;;;;5071395;28;20073;-50
2023/05/29 02:44:05;;;;;;;;;;;9.90;99.90;;;;;;5070706;28;20385;-55
2023/05/29 02:46:30;;;;;;;;;;;9.90;99.90;;;;;;5071621;28;19920;-52
2023/05/29 02:48:56;;;;;;;;;;;9.80;99.90;;;;;;5070366;28;19921;-49
2023/05/29 02:51:21;;;;;;;;;;;9.90;99.90;;;;;;5072021;28;19998;-50
2023/05/29 02:53:48;;;;;;;;;;;9.80;99.90;;;;;;5071343;28;20282;-50
2023/05/29 02:56:15;;;;;;;;;;;9.80;99.90;;;;;;5070967;28;20332;-50
2023/05/29 02:58:41;;;;;;;;;;;9.70;99.90;;;;;;5069374;28;20053;-52
2023/05/29 03:01:06;;;;;;;;;;;9.80;99.90;;;;;;5072010;28;19938;-50
2023/05/29 03:03:32;;;;;;;;;;;9.70;99.90;;;;;;5070848;28;19946;-50
2023/05/29 03:05:57;;;;;;;;;;;9.70;99.90;;;;;;5072126;28;20408;-55
2023/05/29 03:08:25;;;;;;;;;;;9.70;99.90;;;;;;5068533;28;20019;-53
2023/05/29 03:10:51;;;;;;;;;;;9.70;99.90;;;;;;5070932;28;20026;-50
2023/05/29 03:13:18;;;;;;;;;;;9.70;99.90;;;;;;5069798;28;19921;-53
2023/05/29 03:15:44;;;;;;;;;;;9.70;99.90;;;;;;5071001;28;19916;-53
2023/05/29 03:18:09;;;;;;;;;;;9.70;99.90;;;;;;5069925;28;19927;-51
2023/05/29 03:20:35;;;;;;;;;;;9.70;99.90;;;;;;5070546;28;20336;-49
2023/05/29 03:23:00;;;;;;;;;;;9.70;99.90;;;;;;5070536;28;19927;-51
2023/05/29 03:25:26;;;;;;;;;;;9.60;99.90;;;;;;5070193;28;20440;-50
2023/05/29 03:27:52;;;;;;;;;;;9.60;99.90;;;;;;5068770;28;19920;-52
2023/05/29 03:30:18;;;;;;;;;;;9.60;99.90;;;;;;5070812;28;19938;-50
2023/05/29 03:32:44;;;;;;;;;;;9.60;99.90;;;;;;5070516;28;19973;-50
2023/05/29 03:35:09;;;;;;;;;;;9.60;99.90;;;;;;5070353;28;20376;-50
2023/05/29 03:37:35;;;;;;;;;;;9.60;99.90;;;;;;5068868;28;19916;-54
2023/05/29 03:40:00;;;;;;;;;;;9.60;99.90;;;;;;5070531;28;20188;-50
2023/05/29 03:42:26;;;;;;;;;;;9.50;99.90;;;;;;5069775;28;19962;-53
2023/05/29 03:44:51;;;;;;;;;;;9.50;99.90;;;;;;5069371;28;19924;-53
2023/05/29 03:47:17;;;;;;;;;;;9.50;99.90;;;;;;5070496;28;19916;-50
2023/05/29 03:49:42;;;;;;;;;;;9.50;99.90;;;;;;5069426;28;19920;-52
2023/05/29 03:52:08;;;;;;;;;;;9.50;99.90;;;;;;5070666;28;19916;-54
2023/05/29 03:54:33;;;;;;;;;;;9.50;99.90;;;;;;5069702;28;20381;-50
2023/05/29 03:56:59;;;;;;;;;;;9.50;99.90;;;;;;5070268;28;20011;-50
2023/05/29 03:59:24;;;;;;;;;;;9.50;99.90;;;;;;5068602;28;20316;-53
2023/05/29 04:01:50;;;;;;;;;;;9.50;99.90;;;;;;5070666;28;19916;-50
2023/05/29 04:04:15;;;;;;;;;;;9.50;99.90;;;;;;5069939;28;19916;-50
2023/05/29 04:06:41;;;;;;;;;;;9.50;99.90;;;;;;5070141;28;19920;-51
2023/05/29 04:09:06;;;;;;;;;;;9.60;99.90;;;;;;5069142;28;19916;-54
2023/05/29 04:11:34;;;;;;;;;;;9.60;99.90;;;;;;5069880;28;19920;-52
2023/05/29 04:14:00;;;;;;;;;;;9.60;99.90;;;;;;5051711;28;19973;-50
2023/05/29 04:16:25;;;;;;;;;;;9.60;99.90;;;;;;5069682;28;19916;-51
2023/05/29 04:18:51;;;;;;;;;;;9.60;99.90;;;;;;5069240;28;19924;-49
2023/05/29 04:21:16;;;;;;;;;;;9.70;99.90;;;;;;5073509;28;19999;-50
2023/05/29 04:23:42;;;;;;;;;;;9.70;99.90;;;;;;5073503;28;19920;-52
2023/05/29 04:26:07;;;;;;;;;;;9.70;99.90;;;;;;5054315;28;19939;-53
2023/05/29 04:28:33;;;;;;;;;;;9.70;99.90;;;;;;5052674;28;20306;-50
2023/05/29 04:30:58;;;;;;;;;;;9.80;99.90;;;;;;5073973;28;19959;-50
2023/05/29 04:33:25;;;;;;;;;;;9.80;99.90;;;;;;5055290;28;19993;-52
2023/05/29 04:35:50;;;;;;;;;;;9.80;99.90;;;;;;5073718;28;20399;-52
2023/05/29 04:38:16;;;;;;;;;;;9.80;99.90;;;;;;5072664;28;20018;-52
2023/05/29 04:40:43;;;;;;;;;;;9.80;99.90;;;;;;5072870;28;19916;-50
2023/05/29 04:43:09;;;;;;;;;;;9.90;99.90;;;;;;5073528;28;19952;-52
2023/05/29 04:45:36;;;;;;;;;;;10.00;99.90;;;;;;5073412;28;19959;-54
2023/05/29 04:48:02;;;;;;;;;;;10.00;99.90;;;;;;5073066;28;19927;-51
2023/05/29 04:50:30;;;;;;;;;;;10.10;99.90;;;;;;5073564;28;19916;-52
2023/05/29 04:52:55;;;;;;;;;;;10.10;99.90;;;;;;5074128;28;20373;-50
2023/05/29 04:55:21;;;;;;;;;;;10.10;99.90;;;;;;5072387;28;19920;-55
2023/05/29 04:57:46;;;;;;;;;;;10.20;99.90;;;;;;5072329;28;19930;-50
2023/05/29 05:00:14;;;;;;;;;;;10.30;99.90;;;;;;5073346;28;20018;-50
2023/05/29 05:02:43;;;;;;;;;;;10.40;99.90;;;;;;5073067;28;19916;-52
2023/05/29 05:05:09;;;;;;;;;;;10.40;99.90;;;;;;5072722;28;19916;-52
2023/05/29 05:07:34;;;;;;;;;;;10.50;99.90;;;;;;5071709;28;19916;-50
2023/05/29 05:10:00;;;;;;;;;;;10.60;99.90;;;;;;5073142;28;19923;-51
2023/05/29 05:12:26;;;;;;;;;;;10.70;99.90;;;;;;5073891;28;19942;-51
2023/05/29 05:14:51;;;;;;;;;;;10.80;99.90;;;;;;5072789;28;19924;-51
2023/05/29 05:17:17;;;;;;;;;;;10.90;99.90;;;;;;5072903;28;19920;-52
2023/05/29 05:19:42;;;;;;;;;;;11.00;99.90;;;;;;5072229;28;20385;-51
2023/05/29 05:22:08;;;;;;;;;;;11.10;99.90;;;;;;5072829;28;19916;-50
2023/05/29 05:24:34;;;;;;;;;;;11.20;99.90;;;;;;5073201;28;19916;-51
2023/05/29 05:27:00;;;;;;;;;;;11.30;99.90;;;;;;5073901;28;19924;-50
2023/05/29 05:29:25;;;;;;;;;;;11.50;99.90;;;;;;5072548;28;19916;-51
2023/05/29 05:31:51;;;;;;;;;;;11.50;99.90;;;;;;5072401;28;20289;-54
2023/05/29 05:34:17;;;;;;;;;;;11.70;99.90;;;;;;5072254;28;19923;-53
2023/05/29 05:36:42;;;;;;;;;;;11.80;99.90;;;;;;5073445;28;19967;-50
2023/05/29 05:39:08;;;;;;;;;;;11.80;99.90;;;;;;5071371;28;20398;-51
2023/05/29 05:41:33;;;;;;;;;;;11.90;99.90;;;;;;5072045;28;19916;-51
2023/05/29 05:43:59;;;;;;;;;;;12.00;99.90;;;;;;5072833;28;20195;-50
2023/05/29 05:46:24;;;;;;;;;;;12.00;99.90;;;;;;5074547;28;20292;-51
2023/05/29 05:48:51;;;;;;;;;;;12.10;99.90;;;;;;5072596;28;19923;-53
2023/05/29 05:51:17;;;;;;;;;;;12.20;99.90;;;;;;5074663;28;19923;-50
2023/05/29 05:53:42;;;;;;;;;;;12.30;99.90;;;;;;5073569;28;19920;-55
2023/05/29 05:56:08;;;;;;;;;;;12.40;99.90;;;;;;5072893;28;20392;-50
2023/05/29 05:58:33;;;;;;;;;;;12.50;99.90;;;;;;5071681;28;19928;-50
2023/05/29 06:00:59;;;;;;;;;;;12.60;99.90;;;;;;5073147;28;19923;-51
2023/05/29 06:03:26;;;;;;;;;;;12.70;99.90;;;;;;5070801;28;19917;-50
2023/05/29 06:05:52;;;;;;;;;;;12.70;99.90;;;;;;5060516;28;20308;-51
2023/05/29 06:08:18;;;;;;;;;;;12.80;99.90;;;;;;5071285;28;19930;-51
2023/05/29 06:10:43;;;;;;;;;;;12.90;99.90;;;;;;5071309;28;19916;-51
2023/05/29 06:13:09;;;;;;;;;;;13.00;99.90;;;;;;5069093;28;19916;-51
2023/05/29 06:15:35;;;;;;;;;;;13.00;99.90;;;;;;5078141;28;19920;-55
2023/05/29 06:18:01;;;;;;;;;;;13.10;99.90;;;;;;5061316;28;19987;-53
2023/05/29 06:20:26;;;;;;;;;;;13.00;99.90;;;;;;5072013;28;20404;-51
2023/05/29 06:22:52;;;;;;;;;;;13.10;99.90;;;;;;5071961;28;20536;-51
2023/05/29 06:25:18;;;;;;;;;;;13.20;99.90;;;;;;5071859;28;19956;-51
2023/05/29 06:27:44;;;;;;;;;;;13.20;99.90;;;;;;5071605;28;20402;-51
2023/05/29 06:30:10;;;;;;;;;;;13.30;99.90;;;;;;5073746;28;19920;-50
2023/05/29 06:32:36;;;;;;;;;;;13.40;99.90;;;;;;5075604;28;19955;-54
2023/05/29 06:35:01;;;;;;;;;;;13.50;99.90;;;;;;5075370;28;19917;-54
2023/05/29 06:37:27;;;;;;;;;;;13.50;99.90;;;;;;5070684;28;19916;-50
2023/05/29 06:39:52;;;;;;;;;;;13.70;99.90;;;;;;5084886;28;19920;-53
2023/05/29 06:42:18;;;;;;;;;;;13.70;99.90;;;;;;5072834;28;20385;-50
2023/05/29 06:44:43;;;;;;;;;;;13.80;99.90;;;;;;5074219;28;20498;-54
2023/05/29 06:47:09;;;;;;;;;;;13.90;99.80;;;;;;5073355;28;20377;-51
2023/05/29 06:49:34;;;;;;;;;;;14.00;99.90;;;;;;5072064;28;19917;-54
2023/05/29 06:52:00;;;;;;;;;;;14.10;99.60;;;;;;5069260;28;20324;-52
2023/05/29 06:54:25;;;;;;;;;;;14.10;99.40;;;;;;5071816;28;19955;-51
2023/05/29 06:56:51;;;;;;;;;;;14.20;99.30;;;;;;5071236;28;20011;-52
2023/05/29 06:59:16;;;;;;;;;;;14.20;99.20;;;;;;5070699;28;19943;-51
2023/05/29 07:01:42;;;;;;;;;;;14.30;99.10;;;;;;5071727;28;19970;-57
2023/05/29 07:04:07;;;;;;;;;;;14.30;98.90;;;;;;5072058;28;19939;-52
2023/05/29 07:06:33;;;;;;;;;;;14.40;99.10;;;;;;5071436;28;19920;-52
2023/05/29 07:08:59;;;;;;;;;;;14.40;99.10;;;;;;5069922;28;19927;-50
2023/05/29 07:11:26;;;;;;;;;;;14.50;98.90;;;;;;5071212;28;20377;-51
2023/05/29 07:13:53;;;;;;;;;;;14.60;98.70;;;;;;5052298;28;19920;-50
2023/05/29 07:16:18;;;;;;;;;;;14.70;98.60;;;;;;5071453;28;19920;-54
2023/05/29 07:18:44;;;;;;;;;;;14.80;98.30;;;;;;5069720;28;19920;-55
2023/05/29 07:21:10;;;;;;;;;;;14.80;98.10;;;;;;5070672;28;19969;-51
2023/05/29 07:23:35;;;;;;;;;;;14.90;97.90;;;;;;5070387;28;19916;-52
2023/05/29 07:26:01;;;;;;;;;;;14.90;97.60;;;;;;5070553;28;19924;-50
2023/05/29 07:28:27;;;;;;;;;;;15.00;97.30;;;;;;5069599;28;19927;-53
2023/05/29 07:30:52;;;;;;;;;;;15.00;97.30;;;;;;5070763;28;19986;-53
2023/05/29 07:33:17;;;;;;;;;;;15.10;97.40;;;;;;5070575;28;19916;-51
2023/05/29 07:35:43;;;;;;;;;;;15.10;97.20;;;;;;5070653;28;19920;-53
2023/05/29 07:38:09;;;;;;;;;;;15.20;97.10;;;;;;5069993;28;19920;-50
2023/05/29 07:40:34;;;;;;;;;;;15.30;97.20;;;;;;5070719;28;19964;-51
2023/05/29 07:43:00;;;;;;;;;;;15.30;97.10;;;;;;5070719;28;20003;-57
2023/05/29 07:45:25;;;;;;;;;;;15.40;97.20;;;;;;5070753;28;19916;-54
2023/05/29 07:47:51;;;;;;;;;;;15.50;97.10;;;;;;5070248;28;19935;-51
2023/05/29 07:50:16;;;;;;;;;;;15.60;97.10;;;;;;5070607;28;19929;-51
2023/05/29 07:52:43;;;;;;;;;;;15.60;96.80;;;;;;5070156;28;20369;-54
2023/05/29 07:55:08;;;;;;;;;;;15.60;96.60;;;;;;5059577;28;19917;-51
2023/05/29 07:57:34;;;;;;;;;;;15.60;96.60;;;;;;5068936;28;19923;-55
2023/05/29 07:59:59;;;;;;;;;;;15.70;96.40;;;;;;5069471;28;19966;-51
2023/05/29 08:02:25;;;;;;;;;;;15.70;96.60;;;;;;5070970;28;19916;-52
2023/05/29 08:04:50;;;;;;;;;;;15.90;97.00;;;;;;5069716;28;20436;-55
2023/05/29 08:07:15;;;;;;;;;;;15.90;96.50;;;;;;5070836;28;19920;-55
2023/05/29 08:09:41;;;;;;;;;;;15.90;96.10;;;;;;5060098;28;19917;-53
2023/05/29 08:12:06;;;;;;;;;;;16.00;95.80;;;;;;5084249;28;19930;-54
2023/05/29 08:14:32;;;;;;;;;;;16.00;95.70;;;;;;5076080;28;19955;-52
2023/05/29 08:16:58;;;;;;;;;;;16.00;95.50;;;;;;5070251;28;19931;-52
2023/05/29 08:19:24;;;;;;;;;;;16.10;95.20;;;;;;5069430;28;19920;-53
2023/05/29 08:21:49;;;;;;;;;;;16.20;95.10;;;;;;5071094;28;20381;-52
2023/05/29 08:24:15;;;;;;;;;;;16.30;94.90;;;;;;5070184;28;19916;-52
2023/05/29 08:26:41;;;;;;;;;;;16.30;95.10;;;;;;5070877;28;19928;-54
2023/05/29 08:29:06;;;;;;;;;;;16.40;94.60;;;;;;5069196;28;19991;-51
2023/05/29 08:31:32;;;;;;;;;;;16.40;94.90;;;;;;5070834;28;19916;-52
2023/05/29 08:33:57;;;;;;;;;;;16.50;94.60;;;;;;5069664;28;19939;-52
2023/05/29 08:36:23;;;;;;;;;;;16.60;94.50;;;;;;5070618;28;20292;-53
2023/05/29 08:38:49;;;;;;;;;;;16.70;94.40;;;;;;5069285;28;19924;-52
2023/05/29 08:41:22;;;;;;;;;;;16.70;94.10;;;;;;5070064;28;19916;-50
2023/05/29 08:43:48;;;;;;;;;;;16.80;93.80;;;;;;5069101;28;20254;-51
2023/05/29 08:46:15;;;;;;;;;;;16.90;94.10;;;;;;5069826;28;19916;-52
2023/05/29 08:48:42;;;;;;;;;;;17.00;93.70;;;;;;5058900;28;19916;-53
2023/05/29 08:51:09;;;;;;;;;;;17.10;94.00;;;;;;5068022;28;19927;-54
2023/05/29 08:53:35;;;;;;;;;;;17.20;94.20;;;;;;5067250;28;19928;-54
2023/05/29 08:56:01;;;;;;;;;;;17.30;93.80;;;;;;5068329;28;20393;-57
2023/05/29 08:58:26;;;;;;;;;;;17.30;92.80;;;;;;5067400;28;19974;-51
2023/05/29 09:00:52;;;;;;;;;;;17.30;92.90;;;;;;5067800;28;19916;-51
2023/05/29 09:03:17;;;;;;;;;;;17.40;93.00;;;;;;5067059;28;20400;-56
2023/05/29 09:05:44;;;;;;;;;;;17.50;92.90;;;;;;5068457;28;19924;-54
2023/05/29 09:08:11;;;;;;;;;;;17.50;93.20;;;;;;5068484;28;19917;-54
2023/05/29 09:10:41;;;;;;;;;;;17.60;93.10;;;;;;5072543;28;19916;-50
2023/05/29 09:13:07;;;;;;;;;;;17.70;92.80;;;;;;5071141;28;20307;-51
2023/05/29 09:15:32;;;;;;;;;;;17.70;93.00;;;;;;5065229;28;19924;-52
2023/05/29 09:17:58;;;;;;;;;;;17.80;93.40;;;;;;5069779;28;20277;-54
2023/05/29 09:20:24;;;;;;;;;;;17.80;92.80;;;;;;5070873;28;20361;-58
2023/05/29 09:22:54;;;;;;;;;;;17.90;92.80;;;;;;5066778;28;20003;-53
2023/05/29 09:25:31;;;;;;;;;;;17.90;92.00;;;;;;5071919;28;19917;-56
2023/05/29 09:28:05;;;;;;;;;;;18.00;92.60;;;;;;5071330;28;20296;-58
2023/05/29 09:30:31;;;;;;;;;;;18.10;92.60;;;;;;5072065;28;19920;-55
2023/05/29 09:32:58;;;;;;;;;;;18.10;92.50;;;;;;5072989;28;19916;-52
2023/05/29 09:35:24;;;;;;;;;;;18.20;92.30;;;;;;5072257;28;19942;-55
2023/05/29 09:37:50;;;;;;;;;;;18.20;92.10;;;;;;5071907;28;19916;-60
2023/05/29 09:40:15;;;;;;;;;;;18.20;92.20;;;;;;5072041;28;19920;-58
2023/05/29 09:42:41;;;;;;;;;;;18.20;92.00;;;;;;5072500;28;19924;-58
2023/05/29 09:45:08;;;;;;;;;;;18.20;92.30;;;;;;5071793;28;19974;-57
2023/05/29 09:47:34;;;;;;;;;;;18.20;92.10;;;;;;5072066;28;19916;-56
2023/05/29 09:50:00;;;;;;;;;;;18.20;92.00;;;;;;5071798;28;19917;-58
2023/05/29 09:52:29;;;;;;;;;;;18.20;91.60;;;;;;5072277;28;20442;-60
2023/05/29 09:54:56;;;;;;;;;;;18.20;91.50;;;;;;5071867;28;19920;-56
2023/05/29 09:57:23;;;;;;;;;;;18.10;91.00;;;;;;5071768;28;19916;-56
2023/05/29 09:59:51;;;;;;;;;;;18.10;91.30;;;;;;5071629;28;19924;-56
2023/05/29 10:02:17;;;;;;;;;;;18.20;91.10;;;;;;5071899;28;19920;-55
2023/05/29 10:04:45;;;;;;;;;;;18.30;91.00;;;;;;5053355;28;19920;-55
2023/05/29 10:07:28;;;;;;;;;;;18.30;90.70;;;;;;5072192;28;19920;-56
2023/05/29 10:10:01;;;;;;;;;;;18.40;90.80;;;;;;5066348;28;20332;-58
2023/05/29 10:12:27;;;;;;;;;;;18.50;90.40;;;;;;5066054;28;19963;-55
2023/05/29 10:14:56;;;;;;;;;;;18.60;90.70;;;;;;5085115;28;19962;-56
2023/05/29 10:17:23;;;;;;;;;;;18.70;90.80;;;;;;5065872;28;19927;-60
2023/05/29 10:19:49;;;;;;;;;;;18.70;90.40;;;;;;5062767;28;19971;-56
2023/05/29 10:22:18;;;;;;;;;;;18.80;90.10;;;;;;5069173;28;19975;-56
2023/05/29 10:24:45;;;;;;;;;;;18.80;90.30;;;;;;5070682;28;19920;-56
2023/05/29 10:27:11;;;;;;;;;;;18.80;90.00;;;;;;5069216;28;20464;-53
2023/05/29 10:29:40;;;;;;;;;;;18.90;89.90;;;;;;5053165;28;20286;-55
2023/05/29 10:32:23;;;;;;;;;;;18.90;89.60;;;;;;5071582;28;19916;-52
2023/05/29 10:35:07;;;;;;;;;;;19.00;89.60;;;;;;5070965;28;19916;-58
2023/05/29 10:37:33;;;;;;;;;;;19.00;90.30;;;;;;5051107;28;20036;-56
2023/05/29 10:40:08;;;;;;;;;;;19.00;88.10;;;;;;5071296;28;20011;-59
2023/05/29 10:42:47;;;;;;;;;;;19.10;89.80;;;;;;5041582;28;19955;-55
2023/05/29 10:45:28;;;;;;;;;;;19.20;90.00;;;;;;5070382;28;19920;-57
2023/05/29 10:47:54;;;;;;;;;;;19.30;89.10;;;;;;5050706;28;19920;-60
2023/05/29 10:50:50;;;;;;;;;;;19.50;89.60;;;;;;5064988;28;19923;-54
2023/05/29 10:53:23;;;;;;;;;;;19.60;89.40;;;;;;5061673;28;19959;-57
2023/05/29 10:55:50;;;;;;;;;;;19.70;89.30;;;;;;5069644;28;19929;-57
2023/05/29 10:58:19;;;;;;;;;;;19.80;87.00;;;;;;5070449;28;20361;-55
2023/05/29 11:00:48;;;;;;;;;;;19.80;87.70;;;;;;5070604;28;19916;-59
2023/05/29 11:03:14;;;;;;;;;;;19.80;88.10;;;;;;5068560;28;19923;-57
2023/05/29 11:05:58;;;;;;;;;;;19.70;87.60;;;;;;5061398;28;20011;-57
2023/05/29 11:08:34;;;;;;;;;;;19.70;88.00;;;;;;5063462;28;19920;-54
2023/05/29 11:11:00;;;;;;;;;;;19.70;88.00;;;;;;5070007;28;20057;-57
2023/05/29 11:13:26;;;;;;;;;;;19.70;88.60;;;;;;5070508;28;20035;-59
2023/05/29 11:16:12;;;;;;;;;;;19.80;89.00;;;;;;5070599;28;20300;-58
2023/05/29 11:18:41;;;;;;;;;;;19.80;87.90;;;;;;5050797;28;19963;-56
2023/05/29 11:21:12;;;;;;;;;;;19.80;87.80;;;;;;5067085;28;20038;-56
2023/05/29 11:23:40;;;;;;;;;;;19.80;87.60;;;;;;5072805;28;20346;-57
2023/05/29 11:26:06;;;;;;;;;;;19.90;87.40;;;;;;5080321;28;19952;-58
2023/05/29 11:28:32;;;;;;;;;;;19.90;87.60;;;;;;5069648;28;19971;-54
2023/05/29 11:31:00;;;;;;;;;;;20.00;86.50;;;;;;5070028;28;19916;-53
2023/05/29 11:33:26;;;;;;;;;;;20.00;87.50;;;;;;5069765;28;20027;-58
2023/05/29 11:35:59;;;;;;;;;;;20.10;87.60;;;;;;5070507;28;19961;-58
2023/05/29 11:38:25;;;;;;;;;;;20.20;86.10;;;;;;5068807;28;19916;-57
2023/05/29 11:40:52;;;;;;;;;;;20.30;85.80;;;;;;5069703;28;19966;-57
2023/05/29 11:43:18;;;;;;;;;;;20.30;85.70;;;;;;5068698;28;19916;-55
2023/05/29 11:45:43;;;;;;;;;;;20.30;85.90;;;;;;5066430;28;19923;-57
2023/05/29 11:48:09;;;;;;;;;;;20.20;83.00;;;;;;5068792;28;19916;-54
2023/05/29 11:50:35;;;;;;;;;;;20.20;84.00;;;;;;5070208;28;19917;-57
2023/05/29 11:53:01;;;;;;;;;;;20.10;83.10;;;;;;5069824;28;19920;-52
2023/05/29 11:55:27;;;;;;;;;;;20.10;84.20;;;;;;5069656;28;19926;-59
2023/05/29 11:57:57;;;;;;;;;;;20.10;82.90;;;;;;5064066;28;19916;-56
2023/05/29 12:00:24;;;;;;;;;;;20.10;83.80;;;;;;5073937;28;19982;-56
2023/05/29 12:02:50;;;;;;;;;;;20.20;83.80;;;;;;5069555;28;20317;-57
2023/05/29 12:05:16;;;;;;;;;;;20.20;83.70;;;;;;5065358;28;19916;-56
2023/05/29 12:07:48;;;;;;;;;;;20.10;83.10;;;;;;5049271;28;19920;-54
2023/05/29 12:10:15;;;;;;;;;;;20.10;83.20;;;;;;5069890;28;19923;-53
2023/05/29 12:12:41;;;;;;;;;;;19.90;82.70;;;;;;5069290;28;19960;-55
2023/05/29 12:15:08;;;;;;;;;;;20.00;83.20;;;;;;5056481;28;20398;-55
2023/05/29 12:17:34;;;;;;;;;;;20.10;84.50;;;;;;5071727;28;20377;-58
2023/05/29 12:19:59;;;;;;;;;;;20.20;84.20;;;;;;5069549;28;19920;-55
2023/05/29 12:22:38;;;;;;;;;;;20.20;83.50;;;;;;5063240;28;19916;-55
2023/05/29 12:25:13;;;;;;;;;;;20.40;84.40;;;;;;5051749;28;19923;-58
2023/05/29 12:27:42;;;;;;;;;;;20.30;83.60;;;;;;5060567;28;19962;-56
2023/05/29 12:30:14;;;;;;;;;;;20.30;82.50;;;;;;5065639;28;19917;-54
2023/05/29 12:32:41;;;;;;;;;;;20.40;83.30;;;;;;5066066;28;19923;-56
2023/05/29 12:35:13;;;;;;;;;;;20.30;83.40;;;;;;5069429;28;20396;-53
2023/05/29 12:37:43;;;;;;;;;;;20.30;81.20;;;;;;5059255;28;19923;-53
2023/05/29 12:40:10;;;;;;;;;;;20.20;80.30;;;;;;5069670;28;19924;-53
2023/05/29 12:42:37;;;;;;;;;;;20.30;81.00;;;;;;5072947;28;19916;-52
2023/05/29 12:45:06;;;;;;;;;;;20.30;82.40;;;;;;5068467;28;19917;-55
2023/05/29 12:47:32;;;;;;;;;;;20.30;82.20;;;;;;5067634;28;19916;-54
2023/05/29 12:49:57;;;;;;;;;;;20.40;81.70;;;;;;5061815;28;19970;-54
2023/05/29 12:52:23;;;;;;;;;;;20.30;81.00;;;;;;5089921;28;20304;-54
2023/05/29 12:54:49;;;;;;;;;;;20.40;82.20;;;;;;5073628;28;19920;-55
2023/05/29 12:57:14;;;;;;;;;;;20.40;82.50;;;;;;5073391;28;19927;-57
2023/05/29 12:59:40;;;;;;;;;;;20.50;82.50;;;;;;5072159;28;19928;-52
2023/05/29 13:02:07;;;;;;;;;;;20.60;80.50;;;;;;5073264;28;19916;-52
2023/05/29 13:04:33;;;;;;;;;;;20.60;80.80;;;;;;5073396;28;19979;-55
2023/05/29 13:06:59;;;;;;;;;;;20.60;79.40;;;;;;5073237;28;19923;-55
2023/05/29 13:09:25;;;;;;;;;;;20.70;81.10;;;;;;5072161;28;19920;-54
2023/05/29 13:11:50;;;;;;;;;;;20.80;81.60;;;;;;5055091;28;20304;-52
2023/05/29 13:14:16;;;;;;;;;;;20.70;80.40;;;;;;5054689;28;20011;-54
2023/05/29 13:16:41;;;;;;;;;;;20.80;79.80;;;;;;5073105;28;19973;-53
2023/05/29 13:19:07;;;;;;;;;;;20.80;79.50;;;;;;5071780;28;20373;-53
2023/05/29 13:21:32;;;;;;;;;;;20.70;80.00;;;;;;5072518;28;19916;-56
2023/05/29 13:23:58;;;;;;;;;;;20.70;80.20;;;;;;5072341;28;19927;-55
2023/05/29 13:26:23;;;;;;;;;;;20.80;79.50;;;;;;5072978;28;19969;-55
2023/05/29 13:28:49;;;;;;;;;;;20.70;78.50;;;;;;5060964;28;19923;-53
2023/05/29 13:31:14;;;;;;;;;;;20.70;76.90;;;;;;5066739;28;20380;-55
2023/05/29 13:33:40;;;;;;;;;;;20.70;78.40;;;;;;5061845;28;20360;-56
2023/05/29 13:36:05;;;;;;;;;;;20.70;79.30;;;;;;5072546;28;19977;-54
2023/05/29 13:38:31;;;;;;;;;;;20.70;79.50;;;;;;5070998;28;20474;-56
2023/05/29 13:40:56;;;;;;;;;;;20.70;78.40;;;;;;5072687;28;19962;-53
2023/05/29 13:43:22;;;;;;;;;;;20.70;79.40;;;;;;5072162;28;19975;-56
2023/05/29 13:45:47;;;;;;;;;;;20.70;78.40;;;;;;5072587;28;20399;-57
2023/05/29 13:48:13;;;;;;;;;;;20.70;77.70;;;;;;5071430;28;19916;-53
2023/05/29 13:50:38;;;;;;;;;;;20.60;78.30;;;;;;5072636;28;20018;-57
2023/05/29 13:53:04;;;;;;;;;;;20.60;78.00;;;;;;5071528;28;19926;-55
2023/05/29 13:55:29;;;;;;;;;;;20.50;78.50;;;;;;5072099;28;20479;-56
2023/05/29 13:57:57;;;;;;;;;;;20.40;78.40;;;;;;5071590;28;19917;-57
2023/05/29 14:00:23;;;;;;;;;;;20.30;78.30;;;;;;5071705;28;20369;-56
2023/05/29 14:02:48;;;;;;;;;;;20.30;78.80;;;;;;5072260;28;19924;-57
2023/05/29 14:05:14;;;;;;;;;;;20.30;78.00;;;;;;5071601;28;19916;-52
2023/05/29 14:07:39;;;;;;;;;;;20.20;77.70;;;;;;5070896;28;19921;-55
2023/05/29 14:10:05;;;;;;;;;;;20.20;77.90;;;;;;5072305;28;19916;-56
2023/05/29 14:12:30;;;;;;;;;;;20.20;78.50;;;;;;5072215;28;19927;-58
2023/05/29 14:14:56;;;;;;;;;;;20.20;79.10;;;;;;5071310;28;19924;-54
2023/05/29 14:17:21;;;;;;;;;;;20.20;79.00;;;;;;5071604;28;19917;-55